Terminal Aerodrome Forecast
Issued by NWS Sterling, VA

Current Version | Previous Version | Text Only | Print | Product List | Glossary Off
Versions: 1 2 3 4 5 6 7 8 9 10 11 12 13 14 15 16 17 18 19 20

000
FTUS41 KLWX 260500
TAFIAD
TAF
KIAD 260532Z 2606/2712 VRB03KT P6SM FEW250
     FM260900 VRB03KT 5SM BR SKC
     FM261200 VRB03KT P6SM SKC
     FM261600 05005KT P6SM FEW050 FEW250=

USA.gov is the U.S. government's official web portal to all federal, state and local government web resources and services.